EGPN

Dundee Airport

Dundee, United Kingdom
TAF AMD EGPN 171059Z 1710/1718 VRB03KT 7000 SCT014 BECMG 1710/1712 9999 BECMG 1715/1718 13010KT
Issued Valid From Valid To
Dec-17 @ 10:59 UTC
(an hour ago)
Dec-17 @ 10:00 UTC
(2 hours ago)
Dec-17 @ 18:00 UTC
(in 6 hours)
Dec-17 @ 10:00 to Dec-17 @ 18:00
TAF AMD EGPN 171059Z 1710/1718 VRB03KT 7000 SCT014
Wind Visibility Clouds
Variable at 3 knots 7,001 meters
  • Scattered at 1,400' AGL
Becoming Dec-17 @ 10:00 to Dec-17 @ 15:00
BECMG 1710/1712 9999
Wind Visibility Clouds
Variable at 3 knots 10,000+ meters
  • Scattered at 1,400' AGL
Becoming Dec-17 @ 15:00 to Dec-17 @ 18:00
BECMG 1715/1718 13010KT
Wind Visibility Clouds
130° at 10 knots 10,000+ meters
  • Scattered at 1,400' AGL
TAF AMD EGPN 171059Z 1710/1718 VRB03KT 7000 SCT014 BECMG 1710/1712 9999 BECMG 1715/1718 13010KT
Issued Dec-17 @ 10:59 UTC
(an hour ago)
Valid From Dec-17 @ 10:00 UTC
(2 hours ago)
Valid To Dec-17 @ 18:00 UTC
(in 6 hours)
Dec-17 @ 10:00 - Dec-17 @ 18:00
Wind Visibility
Variable at 3 knots 7,001 meters
Clouds
  • Scattered at 1,400' AGL
Becoming Dec-17 @ 10:00 - Dec-17 @ 15:00
Wind Visibility
Variable at 3 knots 10,000+ meters
Clouds
  • Scattered at 1,400' AGL
Becoming Dec-17 @ 15:00 - Dec-17 @ 18:00
Wind Visibility
130° at 10 knots 10,000+ meters
Clouds
  • Scattered at 1,400' AGL